<?xml version="1.0" encoding="UTF-8" standalone="no" ?>
<gpx xmlns="http://www.topografix.com/GPX/1/1" xmlns:xsi="http://www.w3.org/2001/XMLSchema-instance" xsi:schemaLocation="http://www.topografix.com/GPX/1/1 http://www.topografix.com/GPX/1/1/gpx.xsd" version="1.1" creator="VisuGPX - https://www.visugpx.com">
  <metadata>
    <name>Clisson Sèvre Moine 16,2 km</name>
  </metadata>
  <trk>
    <name><![CDATA[13846263-Clisson Sèvre Moine 16,2 km]]></name>
    <extensions>
      <line xmlns="http://www.topografix.com/GPX/gpx_style/0/2">
        <color>0000FF</color>
        <width>4</width>
      </line>
    </extensions>
    <trkseg>
      <trkpt lat="47.08586" lon="-1.2715">
        <ele>33</ele>
        <time>2022-03-23T15:59:45Z</time>
      </trkpt>
      <trkpt lat="47.08608" lon="-1.27163">
        <ele>33</ele>
        <time>2022-03-23T16:00:17Z</time>
      </trkpt>
      <trkpt lat="47.08631" lon="-1.27006">
        <ele>30</ele>
        <time>2022-03-23T16:02:43Z</time>
      </trkpt>
      <trkpt lat="47.08643" lon="-1.26869">
        <ele>34</ele>
        <time>2022-03-23T16:04:48Z</time>
      </trkpt>
      <trkpt lat="47.0865" lon="-1.26865">
        <ele>35</ele>
        <time>2022-03-23T16:04:58Z</time>
      </trkpt>
      <trkpt lat="47.08656" lon="-1.26856">
        <ele>36</ele>
        <time>2022-03-23T16:05:10Z</time>
      </trkpt>
      <trkpt lat="47.08686" lon="-1.26789">
        <ele>36</ele>
        <time>2022-03-23T16:06:22Z</time>
      </trkpt>
      <trkpt lat="47.08667" lon="-1.2676">
        <ele>37</ele>
        <time>2022-03-23T16:06:59Z</time>
      </trkpt>
      <trkpt lat="47.08647" lon="-1.26758">
        <ele>36</ele>
        <time>2022-03-23T16:07:26Z</time>
      </trkpt>
      <trkpt lat="47.08643" lon="-1.26755">
        <ele>36</ele>
        <time>2022-03-23T16:07:32Z</time>
      </trkpt>
      <trkpt lat="47.08636" lon="-1.26742">
        <ele>36</ele>
        <time>2022-03-23T16:07:47Z</time>
      </trkpt>
      <trkpt lat="47.08632" lon="-1.2673">
        <ele>37</ele>
        <time>2022-03-23T16:07:59Z</time>
      </trkpt>
      <trkpt lat="47.08624" lon="-1.26692">
        <ele>37</ele>
        <time>2022-03-23T16:08:35Z</time>
      </trkpt>
      <trkpt lat="47.08613" lon="-1.26662">
        <ele>37</ele>
        <time>2022-03-23T16:09:06Z</time>
      </trkpt>
      <trkpt lat="47.08606" lon="-1.26637">
        <ele>37</ele>
        <time>2022-03-23T16:09:31Z</time>
      </trkpt>
      <trkpt lat="47.08602" lon="-1.26585">
        <ele>37</ele>
        <time>2022-03-23T16:10:18Z</time>
      </trkpt>
      <trkpt lat="47.08605" lon="-1.26552">
        <ele>38</ele>
        <time>2022-03-23T16:10:48Z</time>
      </trkpt>
      <trkpt lat="47.08595" lon="-1.26538">
        <ele>38</ele>
        <time>2022-03-23T16:11:07Z</time>
      </trkpt>
      <trkpt lat="47.08609" lon="-1.26504">
        <ele>39</ele>
        <time>2022-03-23T16:11:43Z</time>
      </trkpt>
      <trkpt lat="47.0862" lon="-1.26485">
        <ele>39</ele>
        <time>2022-03-23T16:12:06Z</time>
      </trkpt>
      <trkpt lat="47.08625" lon="-1.26469">
        <ele>39</ele>
        <time>2022-03-23T16:12:22Z</time>
      </trkpt>
      <trkpt lat="47.08626" lon="-1.26459">
        <ele>39</ele>
        <time>2022-03-23T16:12:31Z</time>
      </trkpt>
      <trkpt lat="47.08625" lon="-1.26438">
        <ele>39</ele>
        <time>2022-03-23T16:12:50Z</time>
      </trkpt>
      <trkpt lat="47.08622" lon="-1.26427">
        <ele>39</ele>
        <time>2022-03-23T16:13:01Z</time>
      </trkpt>
      <trkpt lat="47.08609" lon="-1.2642">
        <ele>39</ele>
        <time>2022-03-23T16:13:19Z</time>
      </trkpt>
      <trkpt lat="47.08601" lon="-1.26413">
        <ele>39</ele>
        <time>2022-03-23T16:13:32Z</time>
      </trkpt>
      <trkpt lat="47.08591" lon="-1.26384">
        <ele>39</ele>
        <time>2022-03-23T16:14:01Z</time>
      </trkpt>
      <trkpt lat="47.08577" lon="-1.26373">
        <ele>39</ele>
        <time>2022-03-23T16:14:22Z</time>
      </trkpt>
      <trkpt lat="47.08575" lon="-1.26368">
        <ele>39</ele>
        <time>2022-03-23T16:14:28Z</time>
      </trkpt>
      <trkpt lat="47.08575" lon="-1.26355">
        <ele>39</ele>
        <time>2022-03-23T16:14:39Z</time>
      </trkpt>
      <trkpt lat="47.08557" lon="-1.26329">
        <ele>39</ele>
        <time>2022-03-23T16:15:13Z</time>
      </trkpt>
      <trkpt lat="47.08544" lon="-1.26298">
        <ele>38</ele>
        <time>2022-03-23T16:15:46Z</time>
      </trkpt>
      <trkpt lat="47.08535" lon="-1.26263">
        <ele>38</ele>
        <time>2022-03-23T16:16:20Z</time>
      </trkpt>
      <trkpt lat="47.08511" lon="-1.26263">
        <ele>37</ele>
        <time>2022-03-23T16:16:52Z</time>
      </trkpt>
      <trkpt lat="47.08494" lon="-1.26273">
        <ele>37</ele>
        <time>2022-03-23T16:17:17Z</time>
      </trkpt>
      <trkpt lat="47.08491" lon="-1.26279">
        <ele>37</ele>
        <time>2022-03-23T16:17:23Z</time>
      </trkpt>
      <trkpt lat="47.08491" lon="-1.26285">
        <ele>37</ele>
        <time>2022-03-23T16:17:29Z</time>
      </trkpt>
      <trkpt lat="47.0848" lon="-1.26292">
        <ele>37</ele>
        <time>2022-03-23T16:17:45Z</time>
      </trkpt>
      <trkpt lat="47.08482" lon="-1.26303">
        <ele>37</ele>
        <time>2022-03-23T16:17:55Z</time>
      </trkpt>
      <trkpt lat="47.08482" lon="-1.2632">
        <ele>37</ele>
        <time>2022-03-23T16:18:11Z</time>
      </trkpt>
      <trkpt lat="47.08446" lon="-1.26384">
        <ele>35</ele>
        <time>2022-03-23T16:19:26Z</time>
      </trkpt>
      <trkpt lat="47.08436" lon="-1.26374">
        <ele>35</ele>
        <time>2022-03-23T16:19:42Z</time>
      </trkpt>
      <trkpt lat="47.08362" lon="-1.26279">
        <ele>35</ele>
        <time>2022-03-23T16:21:53Z</time>
      </trkpt>
      <trkpt lat="47.08309" lon="-1.26251">
        <ele>38</ele>
        <time>2022-03-23T16:23:09Z</time>
      </trkpt>
      <trkpt lat="47.08299" lon="-1.26243">
        <ele>39</ele>
        <time>2022-03-23T16:23:24Z</time>
      </trkpt>
      <trkpt lat="47.08286" lon="-1.26221">
        <ele>39</ele>
        <time>2022-03-23T16:23:50Z</time>
      </trkpt>
      <trkpt lat="47.08275" lon="-1.26183">
        <ele>39</ele>
        <time>2022-03-23T16:24:28Z</time>
      </trkpt>
      <trkpt lat="47.08263" lon="-1.2619">
        <ele>39</ele>
        <time>2022-03-23T16:24:45Z</time>
      </trkpt>
      <trkpt lat="47.08248" lon="-1.26195">
        <ele>39</ele>
        <time>2022-03-23T16:25:05Z</time>
      </trkpt>
      <trkpt lat="47.08237" lon="-1.26196">
        <ele>39</ele>
        <time>2022-03-23T16:25:20Z</time>
      </trkpt>
      <trkpt lat="47.08222" lon="-1.26193">
        <ele>38</ele>
        <time>2022-03-23T16:25:40Z</time>
      </trkpt>
      <trkpt lat="47.08208" lon="-1.26186">
        <ele>38</ele>
        <time>2022-03-23T16:26:00Z</time>
      </trkpt>
      <trkpt lat="47.08174" lon="-1.26156">
        <ele>38</ele>
        <time>2022-03-23T16:26:53Z</time>
      </trkpt>
      <trkpt lat="47.08141" lon="-1.26124">
        <ele>37</ele>
        <time>2022-03-23T16:27:46Z</time>
      </trkpt>
      <trkpt lat="47.0813" lon="-1.26106">
        <ele>37</ele>
        <time>2022-03-23T16:28:08Z</time>
      </trkpt>
      <trkpt lat="47.08127" lon="-1.26096">
        <ele>37</ele>
        <time>2022-03-23T16:28:18Z</time>
      </trkpt>
      <trkpt lat="47.08113" lon="-1.26098">
        <ele>36</ele>
        <time>2022-03-23T16:28:36Z</time>
      </trkpt>
      <trkpt lat="47.08105" lon="-1.26095">
        <ele>36</ele>
        <time>2022-03-23T16:28:47Z</time>
      </trkpt>
      <trkpt lat="47.08049" lon="-1.26053">
        <ele>35</ele>
        <time>2022-03-23T16:30:11Z</time>
      </trkpt>
      <trkpt lat="47.0803" lon="-1.26045">
        <ele>34</ele>
        <time>2022-03-23T16:30:38Z</time>
      </trkpt>
      <trkpt lat="47.0798" lon="-1.2603">
        <ele>31</ele>
        <time>2022-03-23T16:31:46Z</time>
      </trkpt>
      <trkpt lat="47.07965" lon="-1.26065">
        <ele>29</ele>
        <time>2022-03-23T16:32:23Z</time>
      </trkpt>
      <trkpt lat="47.07963" lon="-1.2613">
        <ele>28</ele>
        <time>2022-03-23T16:33:23Z</time>
      </trkpt>
      <trkpt lat="47.07962" lon="-1.26134">
        <ele>27</ele>
        <time>2022-03-23T16:33:26Z</time>
      </trkpt>
      <trkpt lat="47.07954" lon="-1.26144">
        <ele>27</ele>
        <time>2022-03-23T16:33:40Z</time>
      </trkpt>
      <trkpt lat="47.08007" lon="-1.26226">
        <ele>24</ele>
        <time>2022-03-23T16:35:23Z</time>
      </trkpt>
      <trkpt lat="47.08031" lon="-1.26257">
        <ele>25</ele>
        <time>2022-03-23T16:36:06Z</time>
      </trkpt>
      <trkpt lat="47.08058" lon="-1.26274">
        <ele>26</ele>
        <time>2022-03-23T16:36:45Z</time>
      </trkpt>
      <trkpt lat="47.08071" lon="-1.26284">
        <ele>26</ele>
        <time>2022-03-23T16:37:05Z</time>
      </trkpt>
      <trkpt lat="47.08089" lon="-1.26311">
        <ele>26</ele>
        <time>2022-03-23T16:37:39Z</time>
      </trkpt>
      <trkpt lat="47.08107" lon="-1.26334">
        <ele>25</ele>
        <time>2022-03-23T16:38:11Z</time>
      </trkpt>
      <trkpt lat="47.08148" lon="-1.26365">
        <ele>26</ele>
        <time>2022-03-23T16:39:12Z</time>
      </trkpt>
      <trkpt lat="47.08172" lon="-1.26389">
        <ele>24</ele>
        <time>2022-03-23T16:39:51Z</time>
      </trkpt>
      <trkpt lat="47.08193" lon="-1.26404">
        <ele>24</ele>
        <time>2022-03-23T16:40:22Z</time>
      </trkpt>
      <trkpt lat="47.08203" lon="-1.26421">
        <ele>22</ele>
        <time>2022-03-23T16:40:43Z</time>
      </trkpt>
      <trkpt lat="47.08213" lon="-1.26427">
        <ele>23</ele>
        <time>2022-03-23T16:40:57Z</time>
      </trkpt>
      <trkpt lat="47.08235" lon="-1.26433">
        <ele>23</ele>
        <time>2022-03-23T16:41:27Z</time>
      </trkpt>
      <trkpt lat="47.0825" lon="-1.26442">
        <ele>22</ele>
        <time>2022-03-23T16:41:49Z</time>
      </trkpt>
      <trkpt lat="47.08264" lon="-1.26455">
        <ele>23</ele>
        <time>2022-03-23T16:42:11Z</time>
      </trkpt>
      <trkpt lat="47.08278" lon="-1.26478">
        <ele>23</ele>
        <time>2022-03-23T16:42:39Z</time>
      </trkpt>
      <trkpt lat="47.08286" lon="-1.26503">
        <ele>24</ele>
        <time>2022-03-23T16:43:04Z</time>
      </trkpt>
      <trkpt lat="47.08301" lon="-1.26532">
        <ele>23</ele>
        <time>2022-03-23T16:43:37Z</time>
      </trkpt>
      <trkpt lat="47.08315" lon="-1.26552">
        <ele>23</ele>
        <time>2022-03-23T16:44:03Z</time>
      </trkpt>
      <trkpt lat="47.08329" lon="-1.26566">
        <ele>22</ele>
        <time>2022-03-23T16:44:26Z</time>
      </trkpt>
      <trkpt lat="47.08326" lon="-1.2657">
        <ele>21</ele>
        <time>2022-03-23T16:44:31Z</time>
      </trkpt>
      <trkpt lat="47.08298" lon="-1.26609">
        <ele>23</ele>
        <time>2022-03-23T16:45:22Z</time>
      </trkpt>
      <trkpt lat="47.08296" lon="-1.26612">
        <ele>23</ele>
        <time>2022-03-23T16:45:26Z</time>
      </trkpt>
      <trkpt lat="47.08321" lon="-1.26656">
        <ele>24</ele>
        <time>2022-03-23T16:46:18Z</time>
      </trkpt>
      <trkpt lat="47.08329" lon="-1.26668">
        <ele>24</ele>
        <time>2022-03-23T16:46:34Z</time>
      </trkpt>
      <trkpt lat="47.08356" lon="-1.2672">
        <ele>27</ele>
        <time>2022-03-23T16:47:33Z</time>
      </trkpt>
      <trkpt lat="47.08394" lon="-1.2676">
        <ele>26</ele>
        <time>2022-03-23T16:48:35Z</time>
      </trkpt>
      <trkpt lat="47.0842" lon="-1.26796">
        <ele>25</ele>
        <time>2022-03-23T16:49:23Z</time>
      </trkpt>
      <trkpt lat="47.0845" lon="-1.26862">
        <ele>23</ele>
        <time>2022-03-23T16:50:35Z</time>
      </trkpt>
      <trkpt lat="47.08455" lon="-1.26893">
        <ele>21</ele>
        <time>2022-03-23T16:51:04Z</time>
      </trkpt>
      <trkpt lat="47.08458" lon="-1.26929">
        <ele>20</ele>
        <time>2022-03-23T16:51:37Z</time>
      </trkpt>
      <trkpt lat="47.08457" lon="-1.26936">
        <ele>20</ele>
        <time>2022-03-23T16:51:44Z</time>
      </trkpt>
      <trkpt lat="47.08454" lon="-1.2694">
        <ele>20</ele>
        <time>2022-03-23T16:51:49Z</time>
      </trkpt>
      <trkpt lat="47.08428" lon="-1.26945">
        <ele>21</ele>
        <time>2022-03-23T16:52:24Z</time>
      </trkpt>
      <trkpt lat="47.08424" lon="-1.26948">
        <ele>21</ele>
        <time>2022-03-23T16:52:30Z</time>
      </trkpt>
      <trkpt lat="47.08425" lon="-1.26955">
        <ele>21</ele>
        <time>2022-03-23T16:52:37Z</time>
      </trkpt>
      <trkpt lat="47.08393" lon="-1.26997">
        <ele>23</ele>
        <time>2022-03-23T16:53:34Z</time>
      </trkpt>
      <trkpt lat="47.08385" lon="-1.27011">
        <ele>23</ele>
        <time>2022-03-23T16:53:50Z</time>
      </trkpt>
      <trkpt lat="47.08379" lon="-1.27029">
        <ele>23</ele>
        <time>2022-03-23T16:54:09Z</time>
      </trkpt>
      <trkpt lat="47.08376" lon="-1.27049">
        <ele>22</ele>
        <time>2022-03-23T16:54:27Z</time>
      </trkpt>
      <trkpt lat="47.08368" lon="-1.27063">
        <ele>22</ele>
        <time>2022-03-23T16:54:44Z</time>
      </trkpt>
      <trkpt lat="47.08353" lon="-1.27081">
        <ele>23</ele>
        <time>2022-03-23T16:55:10Z</time>
      </trkpt>
      <trkpt lat="47.08342" lon="-1.27086">
        <ele>23</ele>
        <time>2022-03-23T16:55:25Z</time>
      </trkpt>
      <trkpt lat="47.08331" lon="-1.27095">
        <ele>24</ele>
        <time>2022-03-23T16:55:42Z</time>
      </trkpt>
      <trkpt lat="47.08316" lon="-1.2712">
        <ele>25</ele>
        <time>2022-03-23T16:56:12Z</time>
      </trkpt>
      <trkpt lat="47.08299" lon="-1.27161">
        <ele>26</ele>
        <time>2022-03-23T16:56:56Z</time>
      </trkpt>
      <trkpt lat="47.08294" lon="-1.27182">
        <ele>26</ele>
        <time>2022-03-23T16:57:16Z</time>
      </trkpt>
      <trkpt lat="47.08286" lon="-1.27234">
        <ele>25</ele>
        <time>2022-03-23T16:58:04Z</time>
      </trkpt>
      <trkpt lat="47.08277" lon="-1.27276">
        <ele>25</ele>
        <time>2022-03-23T16:58:44Z</time>
      </trkpt>
      <trkpt lat="47.08277" lon="-1.27285">
        <ele>25</ele>
        <time>2022-03-23T16:58:53Z</time>
      </trkpt>
      <trkpt lat="47.0828" lon="-1.27297">
        <ele>24</ele>
        <time>2022-03-23T16:59:04Z</time>
      </trkpt>
      <trkpt lat="47.08282" lon="-1.27349">
        <ele>22</ele>
        <time>2022-03-23T16:59:52Z</time>
      </trkpt>
      <trkpt lat="47.08291" lon="-1.2737">
        <ele>20</ele>
        <time>2022-03-23T17:00:14Z</time>
      </trkpt>
      <trkpt lat="47.08299" lon="-1.27397">
        <ele>19</ele>
        <time>2022-03-23T17:00:41Z</time>
      </trkpt>
      <trkpt lat="47.08299" lon="-1.27409">
        <ele>18</ele>
        <time>2022-03-23T17:00:52Z</time>
      </trkpt>
      <trkpt lat="47.08272" lon="-1.27481">
        <ele>18</ele>
        <time>2022-03-23T17:02:06Z</time>
      </trkpt>
      <trkpt lat="47.08264" lon="-1.27511">
        <ele>18</ele>
        <time>2022-03-23T17:02:36Z</time>
      </trkpt>
      <trkpt lat="47.0826" lon="-1.27539">
        <ele>19</ele>
        <time>2022-03-23T17:03:02Z</time>
      </trkpt>
      <trkpt lat="47.08262" lon="-1.27569">
        <ele>20</ele>
        <time>2022-03-23T17:03:29Z</time>
      </trkpt>
      <trkpt lat="47.08265" lon="-1.27579">
        <ele>20</ele>
        <time>2022-03-23T17:03:39Z</time>
      </trkpt>
      <trkpt lat="47.08269" lon="-1.27586">
        <ele>20</ele>
        <time>2022-03-23T17:03:47Z</time>
      </trkpt>
      <trkpt lat="47.08286" lon="-1.276">
        <ele>21</ele>
        <time>2022-03-23T17:04:13Z</time>
      </trkpt>
      <trkpt lat="47.083" lon="-1.2762">
        <ele>22</ele>
        <time>2022-03-23T17:04:39Z</time>
      </trkpt>
      <trkpt lat="47.08311" lon="-1.27628">
        <ele>22</ele>
        <time>2022-03-23T17:04:56Z</time>
      </trkpt>
      <trkpt lat="47.08336" lon="-1.27638">
        <ele>22</ele>
        <time>2022-03-23T17:05:30Z</time>
      </trkpt>
      <trkpt lat="47.08347" lon="-1.27638">
        <ele>22</ele>
        <time>2022-03-23T17:05:45Z</time>
      </trkpt>
      <trkpt lat="47.08415" lon="-1.27688">
        <ele>21</ele>
        <time>2022-03-23T17:07:27Z</time>
      </trkpt>
      <trkpt lat="47.0846" lon="-1.27746">
        <ele>23</ele>
        <time>2022-03-23T17:08:46Z</time>
      </trkpt>
      <trkpt lat="47.08465" lon="-1.27753">
        <ele>23</ele>
        <time>2022-03-23T17:08:56Z</time>
      </trkpt>
      <trkpt lat="47.08471" lon="-1.2776">
        <ele>23</ele>
        <time>2022-03-23T17:09:06Z</time>
      </trkpt>
      <trkpt lat="47.08487" lon="-1.2777">
        <ele>23</ele>
        <time>2022-03-23T17:09:29Z</time>
      </trkpt>
      <trkpt lat="47.08496" lon="-1.27779">
        <ele>23</ele>
        <time>2022-03-23T17:09:44Z</time>
      </trkpt>
      <trkpt lat="47.08515" lon="-1.278">
        <ele>24</ele>
        <time>2022-03-23T17:10:15Z</time>
      </trkpt>
      <trkpt lat="47.08533" lon="-1.27825">
        <ele>24</ele>
        <time>2022-03-23T17:10:48Z</time>
      </trkpt>
      <trkpt lat="47.08546" lon="-1.27832">
        <ele>23</ele>
        <time>2022-03-23T17:11:07Z</time>
      </trkpt>
      <trkpt lat="47.08556" lon="-1.27852">
        <ele>23</ele>
        <time>2022-03-23T17:11:29Z</time>
      </trkpt>
      <trkpt lat="47.08563" lon="-1.27873">
        <ele>23</ele>
        <time>2022-03-23T17:11:51Z</time>
      </trkpt>
      <trkpt lat="47.08562" lon="-1.27891">
        <ele>24</ele>
        <time>2022-03-23T17:12:07Z</time>
      </trkpt>
      <trkpt lat="47.08554" lon="-1.27933">
        <ele>26</ele>
        <time>2022-03-23T17:12:47Z</time>
      </trkpt>
      <trkpt lat="47.08566" lon="-1.27936">
        <ele>25</ele>
        <time>2022-03-23T17:13:03Z</time>
      </trkpt>
      <trkpt lat="47.0857" lon="-1.27941">
        <ele>25</ele>
        <time>2022-03-23T17:13:10Z</time>
      </trkpt>
      <trkpt lat="47.08571" lon="-1.27953">
        <ele>25</ele>
        <time>2022-03-23T17:13:21Z</time>
      </trkpt>
      <trkpt lat="47.0857" lon="-1.27959">
        <ele>25</ele>
        <time>2022-03-23T17:13:27Z</time>
      </trkpt>
      <trkpt lat="47.08573" lon="-1.2797">
        <ele>25</ele>
        <time>2022-03-23T17:13:37Z</time>
      </trkpt>
      <trkpt lat="47.0858" lon="-1.27974">
        <ele>25</ele>
        <time>2022-03-23T17:13:47Z</time>
      </trkpt>
      <trkpt lat="47.08578" lon="-1.27988">
        <ele>26</ele>
        <time>2022-03-23T17:14:00Z</time>
      </trkpt>
      <trkpt lat="47.08577" lon="-1.27992">
        <ele>26</ele>
        <time>2022-03-23T17:14:04Z</time>
      </trkpt>
      <trkpt lat="47.08573" lon="-1.27995">
        <ele>26</ele>
        <time>2022-03-23T17:14:10Z</time>
      </trkpt>
      <trkpt lat="47.08571" lon="-1.27995">
        <ele>26</ele>
        <time>2022-03-23T17:14:13Z</time>
      </trkpt>
      <trkpt lat="47.08571" lon="-1.28001">
        <ele>27</ele>
        <time>2022-03-23T17:14:18Z</time>
      </trkpt>
      <trkpt lat="47.0858" lon="-1.28043">
        <ele>29</ele>
        <time>2022-03-23T17:14:58Z</time>
      </trkpt>
      <trkpt lat="47.0859" lon="-1.28075">
        <ele>31</ele>
        <time>2022-03-23T17:15:30Z</time>
      </trkpt>
      <trkpt lat="47.08592" lon="-1.28102">
        <ele>33</ele>
        <time>2022-03-23T17:15:55Z</time>
      </trkpt>
      <trkpt lat="47.08583" lon="-1.281">
        <ele>33</ele>
        <time>2022-03-23T17:16:07Z</time>
      </trkpt>
      <trkpt lat="47.08582" lon="-1.28102">
        <ele>33</ele>
        <time>2022-03-23T17:16:09Z</time>
      </trkpt>
      <trkpt lat="47.08592" lon="-1.28174">
        <ele>36</ele>
        <time>2022-03-23T17:17:16Z</time>
      </trkpt>
      <trkpt lat="47.08596" lon="-1.28181">
        <ele>37</ele>
        <time>2022-03-23T17:17:25Z</time>
      </trkpt>
      <trkpt lat="47.086" lon="-1.2819">
        <ele>37</ele>
        <time>2022-03-23T17:17:34Z</time>
      </trkpt>
      <trkpt lat="47.08607" lon="-1.28215">
        <ele>38</ele>
        <time>2022-03-23T17:17:59Z</time>
      </trkpt>
      <trkpt lat="47.08608" lon="-1.28234">
        <ele>38</ele>
        <time>2022-03-23T17:18:16Z</time>
      </trkpt>
      <trkpt lat="47.08667" lon="-1.2823">
        <ele>39</ele>
        <time>2022-03-23T17:19:35Z</time>
      </trkpt>
      <trkpt lat="47.08676" lon="-1.28188">
        <ele>38</ele>
        <time>2022-03-23T17:20:15Z</time>
      </trkpt>
      <trkpt lat="47.08681" lon="-1.2818">
        <ele>38</ele>
        <time>2022-03-23T17:20:25Z</time>
      </trkpt>
      <trkpt lat="47.08708" lon="-1.28178">
        <ele>36</ele>
        <time>2022-03-23T17:21:01Z</time>
      </trkpt>
      <trkpt lat="47.08706" lon="-1.28193">
        <ele>37</ele>
        <time>2022-03-23T17:21:15Z</time>
      </trkpt>
      <trkpt lat="47.08712" lon="-1.28195">
        <ele>37</ele>
        <time>2022-03-23T17:21:23Z</time>
      </trkpt>
      <trkpt lat="47.08731" lon="-1.28202">
        <ele>36</ele>
        <time>2022-03-23T17:21:49Z</time>
      </trkpt>
      <trkpt lat="47.08746" lon="-1.28145">
        <ele>31</ele>
        <time>2022-03-23T17:22:45Z</time>
      </trkpt>
      <trkpt lat="47.08747" lon="-1.28136">
        <ele>30</ele>
        <time>2022-03-23T17:22:53Z</time>
      </trkpt>
      <trkpt lat="47.08745" lon="-1.28127">
        <ele>29</ele>
        <time>2022-03-23T17:23:02Z</time>
      </trkpt>
      <trkpt lat="47.08734" lon="-1.28102">
        <ele>26</ele>
        <time>2022-03-23T17:23:29Z</time>
      </trkpt>
      <trkpt lat="47.08721" lon="-1.28085">
        <ele>25</ele>
        <time>2022-03-23T17:23:52Z</time>
      </trkpt>
      <trkpt lat="47.08719" lon="-1.28075">
        <ele>24</ele>
        <time>2022-03-23T17:24:01Z</time>
      </trkpt>
      <trkpt lat="47.08703" lon="-1.28068">
        <ele>25</ele>
        <time>2022-03-23T17:24:24Z</time>
      </trkpt>
      <trkpt lat="47.08695" lon="-1.28063">
        <ele>25</ele>
        <time>2022-03-23T17:24:35Z</time>
      </trkpt>
      <trkpt lat="47.08685" lon="-1.28048">
        <ele>24</ele>
        <time>2022-03-23T17:24:54Z</time>
      </trkpt>
      <trkpt lat="47.0868" lon="-1.28034">
        <ele>23</ele>
        <time>2022-03-23T17:25:09Z</time>
      </trkpt>
      <trkpt lat="47.08681" lon="-1.28013">
        <ele>21</ele>
        <time>2022-03-23T17:25:28Z</time>
      </trkpt>
      <trkpt lat="47.08687" lon="-1.28008">
        <ele>20</ele>
        <time>2022-03-23T17:25:37Z</time>
      </trkpt>
      <trkpt lat="47.08689" lon="-1.2801">
        <ele>20</ele>
        <time>2022-03-23T17:25:40Z</time>
      </trkpt>
      <trkpt lat="47.08716" lon="-1.27937">
        <ele>16</ele>
        <time>2022-03-23T17:26:56Z</time>
      </trkpt>
      <trkpt lat="47.08714" lon="-1.27935">
        <ele>16</ele>
        <time>2022-03-23T17:26:59Z</time>
      </trkpt>
      <trkpt lat="47.08722" lon="-1.27885">
        <ele>16</ele>
        <time>2022-03-23T17:27:46Z</time>
      </trkpt>
      <trkpt lat="47.08725" lon="-1.27876">
        <ele>16</ele>
        <time>2022-03-23T17:27:55Z</time>
      </trkpt>
      <trkpt lat="47.08732" lon="-1.27864">
        <ele>16</ele>
        <time>2022-03-23T17:28:09Z</time>
      </trkpt>
      <trkpt lat="47.08764" lon="-1.27825">
        <ele>18</ele>
        <time>2022-03-23T17:29:05Z</time>
      </trkpt>
      <trkpt lat="47.08779" lon="-1.27798">
        <ele>20</ele>
        <time>2022-03-23T17:29:36Z</time>
      </trkpt>
      <trkpt lat="47.08817" lon="-1.27759">
        <ele>25</ele>
        <time>2022-03-23T17:30:38Z</time>
      </trkpt>
      <trkpt lat="47.08827" lon="-1.27746">
        <ele>26</ele>
        <time>2022-03-23T17:30:56Z</time>
      </trkpt>
      <trkpt lat="47.0886" lon="-1.27717">
        <ele>29</ele>
        <time>2022-03-23T17:31:47Z</time>
      </trkpt>
      <trkpt lat="47.08868" lon="-1.27708">
        <ele>30</ele>
        <time>2022-03-23T17:32:01Z</time>
      </trkpt>
      <trkpt lat="47.08873" lon="-1.277">
        <ele>30</ele>
        <time>2022-03-23T17:32:11Z</time>
      </trkpt>
      <trkpt lat="47.08876" lon="-1.27691">
        <ele>30</ele>
        <time>2022-03-23T17:32:20Z</time>
      </trkpt>
      <trkpt lat="47.0888" lon="-1.27673">
        <ele>30</ele>
        <time>2022-03-23T17:32:37Z</time>
      </trkpt>
      <trkpt lat="47.08883" lon="-1.2763">
        <ele>30</ele>
        <time>2022-03-23T17:33:16Z</time>
      </trkpt>
      <trkpt lat="47.08901" lon="-1.27557">
        <ele>29</ele>
        <time>2022-03-23T17:34:27Z</time>
      </trkpt>
      <trkpt lat="47.08922" lon="-1.27513">
        <ele>30</ele>
        <time>2022-03-23T17:35:15Z</time>
      </trkpt>
      <trkpt lat="47.08929" lon="-1.27502">
        <ele>30</ele>
        <time>2022-03-23T17:35:29Z</time>
      </trkpt>
      <trkpt lat="47.08939" lon="-1.27493">
        <ele>30</ele>
        <time>2022-03-23T17:35:45Z</time>
      </trkpt>
      <trkpt lat="47.08949" lon="-1.27491">
        <ele>31</ele>
        <time>2022-03-23T17:35:58Z</time>
      </trkpt>
      <trkpt lat="47.08963" lon="-1.27495">
        <ele>31</ele>
        <time>2022-03-23T17:36:17Z</time>
      </trkpt>
      <trkpt lat="47.0899" lon="-1.27509">
        <ele>33</ele>
        <time>2022-03-23T17:36:56Z</time>
      </trkpt>
      <trkpt lat="47.08993" lon="-1.27504">
        <ele>33</ele>
        <time>2022-03-23T17:37:02Z</time>
      </trkpt>
      <trkpt lat="47.08998" lon="-1.27505">
        <ele>33</ele>
        <time>2022-03-23T17:37:08Z</time>
      </trkpt>
      <trkpt lat="47.09002" lon="-1.27488">
        <ele>33</ele>
        <time>2022-03-23T17:37:25Z</time>
      </trkpt>
      <trkpt lat="47.09005" lon="-1.27455">
        <ele>34</ele>
        <time>2022-03-23T17:37:55Z</time>
      </trkpt>
      <trkpt lat="47.09005" lon="-1.27388">
        <ele>33</ele>
        <time>2022-03-23T17:38:56Z</time>
      </trkpt>
      <trkpt lat="47.09002" lon="-1.27288">
        <ele>32</ele>
        <time>2022-03-23T17:40:27Z</time>
      </trkpt>
      <trkpt lat="47.09004" lon="-1.27265">
        <ele>31</ele>
        <time>2022-03-23T17:40:48Z</time>
      </trkpt>
      <trkpt lat="47.09007" lon="-1.27247">
        <ele>31</ele>
        <time>2022-03-23T17:41:05Z</time>
      </trkpt>
      <trkpt lat="47.09011" lon="-1.27231">
        <ele>32</ele>
        <time>2022-03-23T17:41:20Z</time>
      </trkpt>
      <trkpt lat="47.09021" lon="-1.27206">
        <ele>32</ele>
        <time>2022-03-23T17:41:46Z</time>
      </trkpt>
      <trkpt lat="47.09027" lon="-1.27192">
        <ele>32</ele>
        <time>2022-03-23T17:42:01Z</time>
      </trkpt>
      <trkpt lat="47.09048" lon="-1.27152">
        <ele>33</ele>
        <time>2022-03-23T17:42:47Z</time>
      </trkpt>
      <trkpt lat="47.0912" lon="-1.27039">
        <ele>36</ele>
        <time>2022-03-23T17:45:08Z</time>
      </trkpt>
      <trkpt lat="47.09168" lon="-1.26943">
        <ele>36</ele>
        <time>2022-03-23T17:46:56Z</time>
      </trkpt>
      <trkpt lat="47.09195" lon="-1.26897">
        <ele>35</ele>
        <time>2022-03-23T17:47:51Z</time>
      </trkpt>
      <trkpt lat="47.09203" lon="-1.26892">
        <ele>35</ele>
        <time>2022-03-23T17:48:03Z</time>
      </trkpt>
      <trkpt lat="47.09204" lon="-1.26881">
        <ele>34</ele>
        <time>2022-03-23T17:48:13Z</time>
      </trkpt>
      <trkpt lat="47.09208" lon="-1.26877">
        <ele>34</ele>
        <time>2022-03-23T17:48:20Z</time>
      </trkpt>
      <trkpt lat="47.09213" lon="-1.26877">
        <ele>34</ele>
        <time>2022-03-23T17:48:26Z</time>
      </trkpt>
      <trkpt lat="47.09216" lon="-1.26867">
        <ele>34</ele>
        <time>2022-03-23T17:48:36Z</time>
      </trkpt>
      <trkpt lat="47.09255" lon="-1.26802">
        <ele>32</ele>
        <time>2022-03-23T17:49:55Z</time>
      </trkpt>
      <trkpt lat="47.09265" lon="-1.26775">
        <ele>32</ele>
        <time>2022-03-23T17:50:23Z</time>
      </trkpt>
      <trkpt lat="47.09273" lon="-1.26764">
        <ele>32</ele>
        <time>2022-03-23T17:50:37Z</time>
      </trkpt>
      <trkpt lat="47.09281" lon="-1.26751">
        <ele>31</ele>
        <time>2022-03-23T17:50:53Z</time>
      </trkpt>
      <trkpt lat="47.09353" lon="-1.2661">
        <ele>32</ele>
        <time>2022-03-23T17:53:33Z</time>
      </trkpt>
      <trkpt lat="47.0938" lon="-1.26552">
        <ele>32</ele>
        <time>2022-03-23T17:54:37Z</time>
      </trkpt>
      <trkpt lat="47.09385" lon="-1.26547">
        <ele>32</ele>
        <time>2022-03-23T17:54:45Z</time>
      </trkpt>
      <trkpt lat="47.09402" lon="-1.26499">
        <ele>32</ele>
        <time>2022-03-23T17:55:34Z</time>
      </trkpt>
      <trkpt lat="47.09421" lon="-1.26512">
        <ele>32</ele>
        <time>2022-03-23T17:56:02Z</time>
      </trkpt>
      <trkpt lat="47.09428" lon="-1.26512">
        <ele>32</ele>
        <time>2022-03-23T17:56:12Z</time>
      </trkpt>
      <trkpt lat="47.09437" lon="-1.26508">
        <ele>32</ele>
        <time>2022-03-23T17:56:24Z</time>
      </trkpt>
      <trkpt lat="47.0945" lon="-1.26509">
        <ele>32</ele>
        <time>2022-03-23T17:56:42Z</time>
      </trkpt>
      <trkpt lat="47.09476" lon="-1.26516">
        <ele>32</ele>
        <time>2022-03-23T17:57:17Z</time>
      </trkpt>
      <trkpt lat="47.0948" lon="-1.26464">
        <ele>32</ele>
        <time>2022-03-23T17:58:05Z</time>
      </trkpt>
      <trkpt lat="47.09494" lon="-1.26467">
        <ele>32</ele>
        <time>2022-03-23T17:58:23Z</time>
      </trkpt>
      <trkpt lat="47.09534" lon="-1.26469">
        <ele>32</ele>
        <time>2022-03-23T17:59:17Z</time>
      </trkpt>
      <trkpt lat="47.0955" lon="-1.26466">
        <ele>32</ele>
        <time>2022-03-23T17:59:38Z</time>
      </trkpt>
      <trkpt lat="47.09688" lon="-1.26418">
        <ele>33</ele>
        <time>2022-03-23T18:02:48Z</time>
      </trkpt>
      <trkpt lat="47.09729" lon="-1.26399">
        <ele>33</ele>
        <time>2022-03-23T18:03:45Z</time>
      </trkpt>
      <trkpt lat="47.0974" lon="-1.26392">
        <ele>33</ele>
        <time>2022-03-23T18:04:01Z</time>
      </trkpt>
      <trkpt lat="47.09808" lon="-1.26311">
        <ele>36</ele>
        <time>2022-03-23T18:05:58Z</time>
      </trkpt>
      <trkpt lat="47.09815" lon="-1.26306">
        <ele>36</ele>
        <time>2022-03-23T18:06:08Z</time>
      </trkpt>
      <trkpt lat="47.09819" lon="-1.26299">
        <ele>37</ele>
        <time>2022-03-23T18:06:16Z</time>
      </trkpt>
      <trkpt lat="47.09862" lon="-1.26199">
        <ele>37</ele>
        <time>2022-03-23T18:08:04Z</time>
      </trkpt>
      <trkpt lat="47.09845" lon="-1.25985">
        <ele>37</ele>
        <time>2022-03-23T18:11:20Z</time>
      </trkpt>
      <trkpt lat="47.09846" lon="-1.25971">
        <ele>37</ele>
        <time>2022-03-23T18:11:32Z</time>
      </trkpt>
      <trkpt lat="47.09856" lon="-1.25929">
        <ele>37</ele>
        <time>2022-03-23T18:12:13Z</time>
      </trkpt>
      <trkpt lat="47.09866" lon="-1.25908">
        <ele>37</ele>
        <time>2022-03-23T18:12:36Z</time>
      </trkpt>
      <trkpt lat="47.09903" lon="-1.25853">
        <ele>39</ele>
        <time>2022-03-23T18:13:46Z</time>
      </trkpt>
      <trkpt lat="47.0993" lon="-1.25824">
        <ele>39</ele>
        <time>2022-03-23T18:14:31Z</time>
      </trkpt>
      <trkpt lat="47.09956" lon="-1.25807">
        <ele>40</ele>
        <time>2022-03-23T18:15:09Z</time>
      </trkpt>
      <trkpt lat="47.0997" lon="-1.25784">
        <ele>40</ele>
        <time>2022-03-23T18:15:37Z</time>
      </trkpt>
      <trkpt lat="47.09984" lon="-1.25765">
        <ele>40</ele>
        <time>2022-03-23T18:16:02Z</time>
      </trkpt>
      <trkpt lat="47.10005" lon="-1.25742">
        <ele>40</ele>
        <time>2022-03-23T18:16:37Z</time>
      </trkpt>
      <trkpt lat="47.10052" lon="-1.25698">
        <ele>40</ele>
        <time>2022-03-23T18:17:52Z</time>
      </trkpt>
      <trkpt lat="47.1008" lon="-1.25669">
        <ele>40</ele>
        <time>2022-03-23T18:18:37Z</time>
      </trkpt>
      <trkpt lat="47.10087" lon="-1.2566">
        <ele>40</ele>
        <time>2022-03-23T18:18:50Z</time>
      </trkpt>
      <trkpt lat="47.10116" lon="-1.25614">
        <ele>40</ele>
        <time>2022-03-23T18:19:47Z</time>
      </trkpt>
      <trkpt lat="47.10117" lon="-1.25607">
        <ele>40</ele>
        <time>2022-03-23T18:19:53Z</time>
      </trkpt>
      <trkpt lat="47.10116" lon="-1.25597">
        <ele>40</ele>
        <time>2022-03-23T18:20:03Z</time>
      </trkpt>
      <trkpt lat="47.10085" lon="-1.25379">
        <ele>39</ele>
        <time>2022-03-23T18:23:25Z</time>
      </trkpt>
      <trkpt lat="47.10077" lon="-1.25284">
        <ele>38</ele>
        <time>2022-03-23T18:24:52Z</time>
      </trkpt>
      <trkpt lat="47.10087" lon="-1.25271">
        <ele>38</ele>
        <time>2022-03-23T18:25:10Z</time>
      </trkpt>
      <trkpt lat="47.10107" lon="-1.2524">
        <ele>39</ele>
        <time>2022-03-23T18:25:48Z</time>
      </trkpt>
      <trkpt lat="47.10108" lon="-1.25223">
        <ele>39</ele>
        <time>2022-03-23T18:26:04Z</time>
      </trkpt>
      <trkpt lat="47.10098" lon="-1.25092">
        <ele>41</ele>
        <time>2022-03-23T18:28:04Z</time>
      </trkpt>
      <trkpt lat="47.10103" lon="-1.25089">
        <ele>41</ele>
        <time>2022-03-23T18:28:11Z</time>
      </trkpt>
      <trkpt lat="47.10092" lon="-1.24988">
        <ele>42</ele>
        <time>2022-03-23T18:29:44Z</time>
      </trkpt>
      <trkpt lat="47.10083" lon="-1.24895">
        <ele>41</ele>
        <time>2022-03-23T18:31:09Z</time>
      </trkpt>
      <trkpt lat="47.10086" lon="-1.24873">
        <ele>40</ele>
        <time>2022-03-23T18:31:29Z</time>
      </trkpt>
      <trkpt lat="47.10154" lon="-1.24816">
        <ele>41</ele>
        <time>2022-03-23T18:33:14Z</time>
      </trkpt>
      <trkpt lat="47.10188" lon="-1.24795">
        <ele>43</ele>
        <time>2022-03-23T18:34:03Z</time>
      </trkpt>
      <trkpt lat="47.10187" lon="-1.24791">
        <ele>43</ele>
        <time>2022-03-23T18:34:07Z</time>
      </trkpt>
      <trkpt lat="47.10219" lon="-1.24729">
        <ele>43</ele>
        <time>2022-03-23T18:35:18Z</time>
      </trkpt>
      <trkpt lat="47.10232" lon="-1.24704">
        <ele>43</ele>
        <time>2022-03-23T18:35:46Z</time>
      </trkpt>
      <trkpt lat="47.10242" lon="-1.2469">
        <ele>43</ele>
        <time>2022-03-23T18:36:05Z</time>
      </trkpt>
      <trkpt lat="47.10259" lon="-1.24671">
        <ele>43</ele>
        <time>2022-03-23T18:36:33Z</time>
      </trkpt>
      <trkpt lat="47.10287" lon="-1.24649">
        <ele>45</ele>
        <time>2022-03-23T18:37:16Z</time>
      </trkpt>
      <trkpt lat="47.10336" lon="-1.24617">
        <ele>48</ele>
        <time>2022-03-23T18:38:27Z</time>
      </trkpt>
      <trkpt lat="47.10354" lon="-1.24601">
        <ele>48</ele>
        <time>2022-03-23T18:38:55Z</time>
      </trkpt>
      <trkpt lat="47.10366" lon="-1.24585">
        <ele>49</ele>
        <time>2022-03-23T18:39:17Z</time>
      </trkpt>
      <trkpt lat="47.10405" lon="-1.24485">
        <ele>50</ele>
        <time>2022-03-23T18:41:02Z</time>
      </trkpt>
      <trkpt lat="47.10418" lon="-1.24459">
        <ele>51</ele>
        <time>2022-03-23T18:41:31Z</time>
      </trkpt>
      <trkpt lat="47.10424" lon="-1.24451">
        <ele>51</ele>
        <time>2022-03-23T18:41:42Z</time>
      </trkpt>
      <trkpt lat="47.10434" lon="-1.24448">
        <ele>51</ele>
        <time>2022-03-23T18:41:55Z</time>
      </trkpt>
      <trkpt lat="47.10463" lon="-1.24449">
        <ele>52</ele>
        <time>2022-03-23T18:42:34Z</time>
      </trkpt>
      <trkpt lat="47.10469" lon="-1.24446">
        <ele>52</ele>
        <time>2022-03-23T18:42:42Z</time>
      </trkpt>
      <trkpt lat="47.10474" lon="-1.2444">
        <ele>52</ele>
        <time>2022-03-23T18:42:51Z</time>
      </trkpt>
      <trkpt lat="47.10477" lon="-1.24432">
        <ele>52</ele>
        <time>2022-03-23T18:42:59Z</time>
      </trkpt>
      <trkpt lat="47.10481" lon="-1.24419">
        <ele>53</ele>
        <time>2022-03-23T18:43:12Z</time>
      </trkpt>
      <trkpt lat="47.10525" lon="-1.24186">
        <ele>58</ele>
        <time>2022-03-23T18:46:52Z</time>
      </trkpt>
      <trkpt lat="47.10536" lon="-1.24189">
        <ele>58</ele>
        <time>2022-03-23T18:47:07Z</time>
      </trkpt>
      <trkpt lat="47.10541" lon="-1.24167">
        <ele>58</ele>
        <time>2022-03-23T18:47:28Z</time>
      </trkpt>
      <trkpt lat="47.10555" lon="-1.24112">
        <ele>58</ele>
        <time>2022-03-23T18:48:21Z</time>
      </trkpt>
      <trkpt lat="47.10564" lon="-1.241">
        <ele>58</ele>
        <time>2022-03-23T18:48:38Z</time>
      </trkpt>
      <trkpt lat="47.10604" lon="-1.24081">
        <ele>59</ele>
        <time>2022-03-23T18:49:34Z</time>
      </trkpt>
      <trkpt lat="47.10618" lon="-1.24071">
        <ele>59</ele>
        <time>2022-03-23T18:49:54Z</time>
      </trkpt>
      <trkpt lat="47.10506" lon="-1.2393">
        <ele>57</ele>
        <time>2022-03-23T18:53:11Z</time>
      </trkpt>
      <trkpt lat="47.10457" lon="-1.23892">
        <ele>58</ele>
        <time>2022-03-23T18:54:25Z</time>
      </trkpt>
      <trkpt lat="47.1045" lon="-1.23882">
        <ele>58</ele>
        <time>2022-03-23T18:54:38Z</time>
      </trkpt>
      <trkpt lat="47.10439" lon="-1.23855">
        <ele>59</ele>
        <time>2022-03-23T18:55:07Z</time>
      </trkpt>
      <trkpt lat="47.10431" lon="-1.23826">
        <ele>60</ele>
        <time>2022-03-23T18:55:35Z</time>
      </trkpt>
      <trkpt lat="47.1035" lon="-1.23679">
        <ele>59</ele>
        <time>2022-03-23T18:58:27Z</time>
      </trkpt>
      <trkpt lat="47.10326" lon="-1.23708">
        <ele>59</ele>
        <time>2022-03-23T18:59:08Z</time>
      </trkpt>
      <trkpt lat="47.10324" lon="-1.23696">
        <ele>59</ele>
        <time>2022-03-23T18:59:20Z</time>
      </trkpt>
      <trkpt lat="47.10326" lon="-1.23681">
        <ele>59</ele>
        <time>2022-03-23T18:59:34Z</time>
      </trkpt>
      <trkpt lat="47.10345" lon="-1.23624">
        <ele>60</ele>
        <time>2022-03-23T19:00:31Z</time>
      </trkpt>
      <trkpt lat="47.10352" lon="-1.2359">
        <ele>61</ele>
        <time>2022-03-23T19:01:03Z</time>
      </trkpt>
      <trkpt lat="47.10353" lon="-1.23576">
        <ele>61</ele>
        <time>2022-03-23T19:01:16Z</time>
      </trkpt>
      <trkpt lat="47.10349" lon="-1.23564">
        <ele>61</ele>
        <time>2022-03-23T19:01:28Z</time>
      </trkpt>
      <trkpt lat="47.10329" lon="-1.23529">
        <ele>61</ele>
        <time>2022-03-23T19:02:10Z</time>
      </trkpt>
      <trkpt lat="47.10273" lon="-1.23451">
        <ele>59</ele>
        <time>2022-03-23T19:03:53Z</time>
      </trkpt>
      <trkpt lat="47.10271" lon="-1.23439">
        <ele>59</ele>
        <time>2022-03-23T19:04:04Z</time>
      </trkpt>
      <trkpt lat="47.10272" lon="-1.23428">
        <ele>59</ele>
        <time>2022-03-23T19:04:14Z</time>
      </trkpt>
      <trkpt lat="47.10279" lon="-1.23408">
        <ele>58</ele>
        <time>2022-03-23T19:04:35Z</time>
      </trkpt>
      <trkpt lat="47.10278" lon="-1.23396">
        <ele>58</ele>
        <time>2022-03-23T19:04:46Z</time>
      </trkpt>
      <trkpt lat="47.10264" lon="-1.23408">
        <ele>58</ele>
        <time>2022-03-23T19:05:07Z</time>
      </trkpt>
      <trkpt lat="47.10226" lon="-1.23425">
        <ele>57</ele>
        <time>2022-03-23T19:06:00Z</time>
      </trkpt>
      <trkpt lat="47.10224" lon="-1.23415">
        <ele>57</ele>
        <time>2022-03-23T19:06:10Z</time>
      </trkpt>
      <trkpt lat="47.10224" lon="-1.23399">
        <ele>56</ele>
        <time>2022-03-23T19:06:24Z</time>
      </trkpt>
      <trkpt lat="47.10228" lon="-1.23392">
        <ele>56</ele>
        <time>2022-03-23T19:06:33Z</time>
      </trkpt>
      <trkpt lat="47.10132" lon="-1.2333">
        <ele>46</ele>
        <time>2022-03-23T19:08:52Z</time>
      </trkpt>
      <trkpt lat="47.10095" lon="-1.23309">
        <ele>42</ele>
        <time>2022-03-23T19:09:45Z</time>
      </trkpt>
      <trkpt lat="47.10048" lon="-1.23297">
        <ele>37</ele>
        <time>2022-03-23T19:10:49Z</time>
      </trkpt>
      <trkpt lat="47.10032" lon="-1.23293">
        <ele>35</ele>
        <time>2022-03-23T19:11:11Z</time>
      </trkpt>
      <trkpt lat="47.1" lon="-1.23278">
        <ele>30</ele>
        <time>2022-03-23T19:11:56Z</time>
      </trkpt>
      <trkpt lat="47.0998" lon="-1.23273">
        <ele>30</ele>
        <time>2022-03-23T19:12:23Z</time>
      </trkpt>
      <trkpt lat="47.09961" lon="-1.23283">
        <ele>31</ele>
        <time>2022-03-23T19:12:50Z</time>
      </trkpt>
      <trkpt lat="47.09933" lon="-1.23305">
        <ele>34</ele>
        <time>2022-03-23T19:13:32Z</time>
      </trkpt>
      <trkpt lat="47.09907" lon="-1.23316">
        <ele>35</ele>
        <time>2022-03-23T19:14:08Z</time>
      </trkpt>
      <trkpt lat="47.09843" lon="-1.23309">
        <ele>33</ele>
        <time>2022-03-23T19:15:34Z</time>
      </trkpt>
      <trkpt lat="47.09823" lon="-1.23309">
        <ele>33</ele>
        <time>2022-03-23T19:16:00Z</time>
      </trkpt>
      <trkpt lat="47.09803" lon="-1.23323">
        <ele>33</ele>
        <time>2022-03-23T19:16:30Z</time>
      </trkpt>
      <trkpt lat="47.09781" lon="-1.23335">
        <ele>32</ele>
        <time>2022-03-23T19:17:01Z</time>
      </trkpt>
      <trkpt lat="47.09705" lon="-1.23394">
        <ele>30</ele>
        <time>2022-03-23T19:18:56Z</time>
      </trkpt>
      <trkpt lat="47.09663" lon="-1.23439">
        <ele>27</ele>
        <time>2022-03-23T19:20:05Z</time>
      </trkpt>
      <trkpt lat="47.09651" lon="-1.23479">
        <ele>29</ele>
        <time>2022-03-23T19:20:45Z</time>
      </trkpt>
      <trkpt lat="47.09644" lon="-1.23544">
        <ele>31</ele>
        <time>2022-03-23T19:21:45Z</time>
      </trkpt>
      <trkpt lat="47.09642" lon="-1.23614">
        <ele>32</ele>
        <time>2022-03-23T19:22:48Z</time>
      </trkpt>
      <trkpt lat="47.0965" lon="-1.2375">
        <ele>30</ele>
        <time>2022-03-23T19:24:53Z</time>
      </trkpt>
      <trkpt lat="47.0965" lon="-1.23797">
        <ele>31</ele>
        <time>2022-03-23T19:25:35Z</time>
      </trkpt>
      <trkpt lat="47.09653" lon="-1.2382">
        <ele>30</ele>
        <time>2022-03-23T19:25:56Z</time>
      </trkpt>
      <trkpt lat="47.0965" lon="-1.23859">
        <ele>31</ele>
        <time>2022-03-23T19:26:32Z</time>
      </trkpt>
      <trkpt lat="47.09637" lon="-1.23893">
        <ele>31</ele>
        <time>2022-03-23T19:27:08Z</time>
      </trkpt>
      <trkpt lat="47.09612" lon="-1.23948">
        <ele>33</ele>
        <time>2022-03-23T19:28:08Z</time>
      </trkpt>
      <trkpt lat="47.09597" lon="-1.23968">
        <ele>34</ele>
        <time>2022-03-23T19:28:35Z</time>
      </trkpt>
      <trkpt lat="47.0956" lon="-1.23996">
        <ele>34</ele>
        <time>2022-03-23T19:29:30Z</time>
      </trkpt>
      <trkpt lat="47.09532" lon="-1.24002">
        <ele>30</ele>
        <time>2022-03-23T19:30:08Z</time>
      </trkpt>
      <trkpt lat="47.09513" lon="-1.24025">
        <ele>30</ele>
        <time>2022-03-23T19:30:41Z</time>
      </trkpt>
      <trkpt lat="47.09499" lon="-1.2405">
        <ele>31</ele>
        <time>2022-03-23T19:31:10Z</time>
      </trkpt>
      <trkpt lat="47.09495" lon="-1.24067">
        <ele>32</ele>
        <time>2022-03-23T19:31:27Z</time>
      </trkpt>
      <trkpt lat="47.09498" lon="-1.24082">
        <ele>34</ele>
        <time>2022-03-23T19:31:41Z</time>
      </trkpt>
      <trkpt lat="47.09499" lon="-1.24096">
        <ele>34</ele>
        <time>2022-03-23T19:31:54Z</time>
      </trkpt>
      <trkpt lat="47.09498" lon="-1.24124">
        <ele>34</ele>
        <time>2022-03-23T19:32:19Z</time>
      </trkpt>
      <trkpt lat="47.09501" lon="-1.24151">
        <ele>34</ele>
        <time>2022-03-23T19:32:44Z</time>
      </trkpt>
      <trkpt lat="47.09511" lon="-1.24183">
        <ele>35</ele>
        <time>2022-03-23T19:33:16Z</time>
      </trkpt>
      <trkpt lat="47.0953" lon="-1.24206">
        <ele>36</ele>
        <time>2022-03-23T19:33:49Z</time>
      </trkpt>
      <trkpt lat="47.0953" lon="-1.24229">
        <ele>35</ele>
        <time>2022-03-23T19:34:10Z</time>
      </trkpt>
      <trkpt lat="47.09535" lon="-1.24235">
        <ele>35</ele>
        <time>2022-03-23T19:34:18Z</time>
      </trkpt>
      <trkpt lat="47.09531" lon="-1.24273">
        <ele>34</ele>
        <time>2022-03-23T19:34:53Z</time>
      </trkpt>
      <trkpt lat="47.09531" lon="-1.24287">
        <ele>34</ele>
        <time>2022-03-23T19:35:06Z</time>
      </trkpt>
      <trkpt lat="47.09607" lon="-1.24343">
        <ele>39</ele>
        <time>2022-03-23T19:36:59Z</time>
      </trkpt>
      <trkpt lat="47.09614" lon="-1.24367">
        <ele>39</ele>
        <time>2022-03-23T19:37:23Z</time>
      </trkpt>
      <trkpt lat="47.09635" lon="-1.24379">
        <ele>40</ele>
        <time>2022-03-23T19:37:53Z</time>
      </trkpt>
      <trkpt lat="47.09657" lon="-1.24395">
        <ele>41</ele>
        <time>2022-03-23T19:38:26Z</time>
      </trkpt>
      <trkpt lat="47.09677" lon="-1.24416">
        <ele>42</ele>
        <time>2022-03-23T19:38:59Z</time>
      </trkpt>
      <trkpt lat="47.0971" lon="-1.24441">
        <ele>44</ele>
        <time>2022-03-23T19:39:48Z</time>
      </trkpt>
      <trkpt lat="47.09839" lon="-1.24502">
        <ele>44</ele>
        <time>2022-03-23T19:42:49Z</time>
      </trkpt>
      <trkpt lat="47.09826" lon="-1.24609">
        <ele>39</ele>
        <time>2022-03-23T19:44:28Z</time>
      </trkpt>
      <trkpt lat="47.09825" lon="-1.24631">
        <ele>37</ele>
        <time>2022-03-23T19:44:48Z</time>
      </trkpt>
      <trkpt lat="47.09827" lon="-1.24658">
        <ele>35</ele>
        <time>2022-03-23T19:45:13Z</time>
      </trkpt>
      <trkpt lat="47.09851" lon="-1.24768">
        <ele>30</ele>
        <time>2022-03-23T19:46:57Z</time>
      </trkpt>
      <trkpt lat="47.09856" lon="-1.24798">
        <ele>29</ele>
        <time>2022-03-23T19:47:26Z</time>
      </trkpt>
      <trkpt lat="47.09857" lon="-1.24815">
        <ele>28</ele>
        <time>2022-03-23T19:47:41Z</time>
      </trkpt>
      <trkpt lat="47.09849" lon="-1.24907">
        <ele>25</ele>
        <time>2022-03-23T19:49:05Z</time>
      </trkpt>
      <trkpt lat="47.09848" lon="-1.24961">
        <ele>25</ele>
        <time>2022-03-23T19:49:54Z</time>
      </trkpt>
      <trkpt lat="47.0985" lon="-1.25064">
        <ele>28</ele>
        <time>2022-03-23T19:51:28Z</time>
      </trkpt>
      <trkpt lat="47.09849" lon="-1.25092">
        <ele>30</ele>
        <time>2022-03-23T19:51:53Z</time>
      </trkpt>
      <trkpt lat="47.09842" lon="-1.2513">
        <ele>32</ele>
        <time>2022-03-23T19:52:29Z</time>
      </trkpt>
      <trkpt lat="47.0983" lon="-1.25175">
        <ele>34</ele>
        <time>2022-03-23T19:53:13Z</time>
      </trkpt>
      <trkpt lat="47.09796" lon="-1.2528">
        <ele>33</ele>
        <time>2022-03-23T19:54:59Z</time>
      </trkpt>
      <trkpt lat="47.09785" lon="-1.25323">
        <ele>33</ele>
        <time>2022-03-23T19:55:40Z</time>
      </trkpt>
      <trkpt lat="47.09672" lon="-1.25275">
        <ele>26</ele>
        <time>2022-03-23T19:58:17Z</time>
      </trkpt>
      <trkpt lat="47.09647" lon="-1.25266">
        <ele>25</ele>
        <time>2022-03-23T19:58:52Z</time>
      </trkpt>
      <trkpt lat="47.09617" lon="-1.25252">
        <ele>23</ele>
        <time>2022-03-23T19:59:34Z</time>
      </trkpt>
      <trkpt lat="47.09611" lon="-1.25251">
        <ele>22</ele>
        <time>2022-03-23T19:59:42Z</time>
      </trkpt>
      <trkpt lat="47.09578" lon="-1.25281">
        <ele>20</ele>
        <time>2022-03-23T20:00:34Z</time>
      </trkpt>
      <trkpt lat="47.09564" lon="-1.25297">
        <ele>21</ele>
        <time>2022-03-23T20:00:57Z</time>
      </trkpt>
      <trkpt lat="47.09561" lon="-1.25306">
        <ele>21</ele>
        <time>2022-03-23T20:01:06Z</time>
      </trkpt>
      <trkpt lat="47.09565" lon="-1.25362">
        <ele>21</ele>
        <time>2022-03-23T20:01:58Z</time>
      </trkpt>
      <trkpt lat="47.09567" lon="-1.25407">
        <ele>22</ele>
        <time>2022-03-23T20:02:39Z</time>
      </trkpt>
      <trkpt lat="47.09566" lon="-1.25477">
        <ele>21</ele>
        <time>2022-03-23T20:03:42Z</time>
      </trkpt>
      <trkpt lat="47.09564" lon="-1.25502">
        <ele>20</ele>
        <time>2022-03-23T20:04:05Z</time>
      </trkpt>
      <trkpt lat="47.0956" lon="-1.25517">
        <ele>21</ele>
        <time>2022-03-23T20:04:20Z</time>
      </trkpt>
      <trkpt lat="47.09526" lon="-1.25578">
        <ele>21</ele>
        <time>2022-03-23T20:05:31Z</time>
      </trkpt>
      <trkpt lat="47.09501" lon="-1.2563">
        <ele>20</ele>
        <time>2022-03-23T20:06:29Z</time>
      </trkpt>
      <trkpt lat="47.095" lon="-1.25643">
        <ele>20</ele>
        <time>2022-03-23T20:06:41Z</time>
      </trkpt>
      <trkpt lat="47.09502" lon="-1.25679">
        <ele>19</ele>
        <time>2022-03-23T20:07:14Z</time>
      </trkpt>
      <trkpt lat="47.09502" lon="-1.25708">
        <ele>19</ele>
        <time>2022-03-23T20:07:40Z</time>
      </trkpt>
      <trkpt lat="47.09496" lon="-1.25748">
        <ele>19</ele>
        <time>2022-03-23T20:08:17Z</time>
      </trkpt>
      <trkpt lat="47.09495" lon="-1.25863">
        <ele>18</ele>
        <time>2022-03-23T20:10:02Z</time>
      </trkpt>
      <trkpt lat="47.09492" lon="-1.25923">
        <ele>18</ele>
        <time>2022-03-23T20:10:56Z</time>
      </trkpt>
      <trkpt lat="47.09486" lon="-1.25973">
        <ele>21</ele>
        <time>2022-03-23T20:11:43Z</time>
      </trkpt>
      <trkpt lat="47.09477" lon="-1.2601">
        <ele>23</ele>
        <time>2022-03-23T20:12:18Z</time>
      </trkpt>
      <trkpt lat="47.09469" lon="-1.26024">
        <ele>24</ele>
        <time>2022-03-23T20:12:35Z</time>
      </trkpt>
      <trkpt lat="47.09458" lon="-1.26032">
        <ele>24</ele>
        <time>2022-03-23T20:12:51Z</time>
      </trkpt>
      <trkpt lat="47.09435" lon="-1.26042">
        <ele>25</ele>
        <time>2022-03-23T20:13:23Z</time>
      </trkpt>
      <trkpt lat="47.09401" lon="-1.26048">
        <ele>25</ele>
        <time>2022-03-23T20:14:09Z</time>
      </trkpt>
      <trkpt lat="47.09385" lon="-1.26056">
        <ele>25</ele>
        <time>2022-03-23T20:14:32Z</time>
      </trkpt>
      <trkpt lat="47.0937" lon="-1.2607">
        <ele>26</ele>
        <time>2022-03-23T20:14:55Z</time>
      </trkpt>
      <trkpt lat="47.09351" lon="-1.26073">
        <ele>26</ele>
        <time>2022-03-23T20:15:21Z</time>
      </trkpt>
      <trkpt lat="47.09337" lon="-1.26083">
        <ele>26</ele>
        <time>2022-03-23T20:15:42Z</time>
      </trkpt>
      <trkpt lat="47.09324" lon="-1.26095">
        <ele>26</ele>
        <time>2022-03-23T20:16:02Z</time>
      </trkpt>
      <trkpt lat="47.09314" lon="-1.26109">
        <ele>27</ele>
        <time>2022-03-23T20:16:20Z</time>
      </trkpt>
      <trkpt lat="47.09277" lon="-1.26162">
        <ele>28</ele>
        <time>2022-03-23T20:17:29Z</time>
      </trkpt>
      <trkpt lat="47.09267" lon="-1.26182">
        <ele>28</ele>
        <time>2022-03-23T20:17:52Z</time>
      </trkpt>
      <trkpt lat="47.09268" lon="-1.26198">
        <ele>29</ele>
        <time>2022-03-23T20:18:07Z</time>
      </trkpt>
      <trkpt lat="47.09273" lon="-1.26209">
        <ele>30</ele>
        <time>2022-03-23T20:18:19Z</time>
      </trkpt>
      <trkpt lat="47.09299" lon="-1.26245">
        <ele>32</ele>
        <time>2022-03-23T20:19:06Z</time>
      </trkpt>
      <trkpt lat="47.09271" lon="-1.26291">
        <ele>31</ele>
        <time>2022-03-23T20:20:02Z</time>
      </trkpt>
      <trkpt lat="47.09237" lon="-1.26339">
        <ele>30</ele>
        <time>2022-03-23T20:21:05Z</time>
      </trkpt>
      <trkpt lat="47.09218" lon="-1.26374">
        <ele>29</ele>
        <time>2022-03-23T20:21:46Z</time>
      </trkpt>
      <trkpt lat="47.09216" lon="-1.26386">
        <ele>29</ele>
        <time>2022-03-23T20:21:57Z</time>
      </trkpt>
      <trkpt lat="47.09251" lon="-1.26451">
        <ele>31</ele>
        <time>2022-03-23T20:23:12Z</time>
      </trkpt>
      <trkpt lat="47.0925" lon="-1.2646">
        <ele>31</ele>
        <time>2022-03-23T20:23:21Z</time>
      </trkpt>
      <trkpt lat="47.09246" lon="-1.26465">
        <ele>31</ele>
        <time>2022-03-23T20:23:28Z</time>
      </trkpt>
      <trkpt lat="47.09211" lon="-1.26452">
        <ele>28</ele>
        <time>2022-03-23T20:24:16Z</time>
      </trkpt>
      <trkpt lat="47.09176" lon="-1.26444">
        <ele>26</ele>
        <time>2022-03-23T20:25:03Z</time>
      </trkpt>
      <trkpt lat="47.09175" lon="-1.26441">
        <ele>26</ele>
        <time>2022-03-23T20:25:06Z</time>
      </trkpt>
      <trkpt lat="47.09176" lon="-1.26435">
        <ele>26</ele>
        <time>2022-03-23T20:25:12Z</time>
      </trkpt>
      <trkpt lat="47.0918" lon="-1.26421">
        <ele>26</ele>
        <time>2022-03-23T20:25:26Z</time>
      </trkpt>
      <trkpt lat="47.0918" lon="-1.26415">
        <ele>26</ele>
        <time>2022-03-23T20:25:31Z</time>
      </trkpt>
      <trkpt lat="47.09172" lon="-1.26406">
        <ele>25</ele>
        <time>2022-03-23T20:25:45Z</time>
      </trkpt>
      <trkpt lat="47.09164" lon="-1.26401">
        <ele>25</ele>
        <time>2022-03-23T20:25:56Z</time>
      </trkpt>
      <trkpt lat="47.09159" lon="-1.26403">
        <ele>24</ele>
        <time>2022-03-23T20:26:03Z</time>
      </trkpt>
      <trkpt lat="47.09154" lon="-1.26407">
        <ele>24</ele>
        <time>2022-03-23T20:26:11Z</time>
      </trkpt>
      <trkpt lat="47.09149" lon="-1.26419">
        <ele>24</ele>
        <time>2022-03-23T20:26:23Z</time>
      </trkpt>
      <trkpt lat="47.09144" lon="-1.26448">
        <ele>23</ele>
        <time>2022-03-23T20:26:51Z</time>
      </trkpt>
      <trkpt lat="47.09143" lon="-1.26458">
        <ele>23</ele>
        <time>2022-03-23T20:27:00Z</time>
      </trkpt>
      <trkpt lat="47.09137" lon="-1.26454">
        <ele>23</ele>
        <time>2022-03-23T20:27:09Z</time>
      </trkpt>
      <trkpt lat="47.09138" lon="-1.26442">
        <ele>23</ele>
        <time>2022-03-23T20:27:20Z</time>
      </trkpt>
      <trkpt lat="47.09133" lon="-1.2644">
        <ele>23</ele>
        <time>2022-03-23T20:27:26Z</time>
      </trkpt>
      <trkpt lat="47.09131" lon="-1.26449">
        <ele>22</ele>
        <time>2022-03-23T20:27:35Z</time>
      </trkpt>
      <trkpt lat="47.09124" lon="-1.26449">
        <ele>22</ele>
        <time>2022-03-23T20:27:44Z</time>
      </trkpt>
      <trkpt lat="47.09114" lon="-1.26488">
        <ele>21</ele>
        <time>2022-03-23T20:28:22Z</time>
      </trkpt>
      <trkpt lat="47.0911" lon="-1.26497">
        <ele>21</ele>
        <time>2022-03-23T20:28:32Z</time>
      </trkpt>
      <trkpt lat="47.09099" lon="-1.26501">
        <ele>20</ele>
        <time>2022-03-23T20:28:47Z</time>
      </trkpt>
      <trkpt lat="47.09097" lon="-1.26506">
        <ele>20</ele>
        <time>2022-03-23T20:28:52Z</time>
      </trkpt>
      <trkpt lat="47.09093" lon="-1.26524">
        <ele>20</ele>
        <time>2022-03-23T20:29:10Z</time>
      </trkpt>
      <trkpt lat="47.09093" lon="-1.26545">
        <ele>20</ele>
        <time>2022-03-23T20:29:29Z</time>
      </trkpt>
      <trkpt lat="47.09077" lon="-1.26606">
        <ele>19</ele>
        <time>2022-03-23T20:30:28Z</time>
      </trkpt>
      <trkpt lat="47.09075" lon="-1.26612">
        <ele>19</ele>
        <time>2022-03-23T20:30:34Z</time>
      </trkpt>
      <trkpt lat="47.09072" lon="-1.26625">
        <ele>19</ele>
        <time>2022-03-23T20:30:47Z</time>
      </trkpt>
      <trkpt lat="47.09068" lon="-1.26638">
        <ele>19</ele>
        <time>2022-03-23T20:31:00Z</time>
      </trkpt>
      <trkpt lat="47.09053" lon="-1.267">
        <ele>20</ele>
        <time>2022-03-23T20:31:59Z</time>
      </trkpt>
      <trkpt lat="47.09043" lon="-1.26715">
        <ele>21</ele>
        <time>2022-03-23T20:32:18Z</time>
      </trkpt>
      <trkpt lat="47.09042" lon="-1.26724">
        <ele>21</ele>
        <time>2022-03-23T20:32:27Z</time>
      </trkpt>
      <trkpt lat="47.09048" lon="-1.26728">
        <ele>22</ele>
        <time>2022-03-23T20:32:36Z</time>
      </trkpt>
      <trkpt lat="47.09048" lon="-1.26738">
        <ele>22</ele>
        <time>2022-03-23T20:32:45Z</time>
      </trkpt>
      <trkpt lat="47.09029" lon="-1.26781">
        <ele>22</ele>
        <time>2022-03-23T20:33:31Z</time>
      </trkpt>
      <trkpt lat="47.09" lon="-1.26834">
        <ele>21</ele>
        <time>2022-03-23T20:34:33Z</time>
      </trkpt>
      <trkpt lat="47.08986" lon="-1.2685">
        <ele>22</ele>
        <time>2022-03-23T20:34:57Z</time>
      </trkpt>
      <trkpt lat="47.08973" lon="-1.26869">
        <ele>22</ele>
        <time>2022-03-23T20:35:21Z</time>
      </trkpt>
      <trkpt lat="47.08951" lon="-1.26919">
        <ele>23</ele>
        <time>2022-03-23T20:36:15Z</time>
      </trkpt>
      <trkpt lat="47.08947" lon="-1.26932">
        <ele>23</ele>
        <time>2022-03-23T20:36:28Z</time>
      </trkpt>
      <trkpt lat="47.08945" lon="-1.26944">
        <ele>23</ele>
        <time>2022-03-23T20:36:39Z</time>
      </trkpt>
      <trkpt lat="47.08948" lon="-1.26962">
        <ele>24</ele>
        <time>2022-03-23T20:36:56Z</time>
      </trkpt>
      <trkpt lat="47.08958" lon="-1.2698">
        <ele>25</ele>
        <time>2022-03-23T20:37:17Z</time>
      </trkpt>
      <trkpt lat="47.0896" lon="-1.26989">
        <ele>26</ele>
        <time>2022-03-23T20:37:26Z</time>
      </trkpt>
      <trkpt lat="47.08955" lon="-1.27041">
        <ele>26</ele>
        <time>2022-03-23T20:38:14Z</time>
      </trkpt>
      <trkpt lat="47.08958" lon="-1.27106">
        <ele>27</ele>
        <time>2022-03-23T20:39:13Z</time>
      </trkpt>
      <trkpt lat="47.08961" lon="-1.27128">
        <ele>28</ele>
        <time>2022-03-23T20:39:33Z</time>
      </trkpt>
      <trkpt lat="47.08976" lon="-1.27147">
        <ele>30</ele>
        <time>2022-03-23T20:40:00Z</time>
      </trkpt>
      <trkpt lat="47.09" lon="-1.27176">
        <ele>32</ele>
        <time>2022-03-23T20:40:41Z</time>
      </trkpt>
      <trkpt lat="47.09021" lon="-1.27206">
        <ele>32</ele>
        <time>2022-03-23T20:41:20Z</time>
      </trkpt>
      <trkpt lat="47.09011" lon="-1.27231">
        <ele>32</ele>
        <time>2022-03-23T20:41:47Z</time>
      </trkpt>
      <trkpt lat="47.09007" lon="-1.27247">
        <ele>31</ele>
        <time>2022-03-23T20:42:02Z</time>
      </trkpt>
      <trkpt lat="47.09004" lon="-1.27265">
        <ele>31</ele>
        <time>2022-03-23T20:42:19Z</time>
      </trkpt>
      <trkpt lat="47.09002" lon="-1.27288">
        <ele>32</ele>
        <time>2022-03-23T20:42:40Z</time>
      </trkpt>
      <trkpt lat="47.09005" lon="-1.27388">
        <ele>33</ele>
        <time>2022-03-23T20:44:11Z</time>
      </trkpt>
      <trkpt lat="47.09005" lon="-1.27455">
        <ele>34</ele>
        <time>2022-03-23T20:45:12Z</time>
      </trkpt>
      <trkpt lat="47.09002" lon="-1.27488">
        <ele>33</ele>
        <time>2022-03-23T20:45:42Z</time>
      </trkpt>
      <trkpt lat="47.08998" lon="-1.27505">
        <ele>33</ele>
        <time>2022-03-23T20:45:58Z</time>
      </trkpt>
      <trkpt lat="47.08993" lon="-1.27504">
        <ele>33</ele>
        <time>2022-03-23T20:46:05Z</time>
      </trkpt>
      <trkpt lat="47.0899" lon="-1.27509">
        <ele>33</ele>
        <time>2022-03-23T20:46:11Z</time>
      </trkpt>
      <trkpt lat="47.08963" lon="-1.27495">
        <ele>31</ele>
        <time>2022-03-23T20:46:49Z</time>
      </trkpt>
      <trkpt lat="47.08949" lon="-1.27491">
        <ele>31</ele>
        <time>2022-03-23T20:47:08Z</time>
      </trkpt>
      <trkpt lat="47.08939" lon="-1.27493">
        <ele>30</ele>
        <time>2022-03-23T20:47:22Z</time>
      </trkpt>
      <trkpt lat="47.08929" lon="-1.27502">
        <ele>30</ele>
        <time>2022-03-23T20:47:38Z</time>
      </trkpt>
      <trkpt lat="47.08922" lon="-1.27513">
        <ele>30</ele>
        <time>2022-03-23T20:47:51Z</time>
      </trkpt>
      <trkpt lat="47.08901" lon="-1.27557">
        <ele>29</ele>
        <time>2022-03-23T20:48:40Z</time>
      </trkpt>
      <trkpt lat="47.0889" lon="-1.276">
        <ele>30</ele>
        <time>2022-03-23T20:49:22Z</time>
      </trkpt>
      <trkpt lat="47.08868" lon="-1.27583">
        <ele>28</ele>
        <time>2022-03-23T20:49:55Z</time>
      </trkpt>
      <trkpt lat="47.08887" lon="-1.27513">
        <ele>26</ele>
        <time>2022-03-23T20:51:03Z</time>
      </trkpt>
      <trkpt lat="47.08886" lon="-1.27459">
        <ele>25</ele>
        <time>2022-03-23T20:51:53Z</time>
      </trkpt>
      <trkpt lat="47.0887" lon="-1.27407">
        <ele>23</ele>
        <time>2022-03-23T20:52:44Z</time>
      </trkpt>
      <trkpt lat="47.0885" lon="-1.2736">
        <ele>21</ele>
        <time>2022-03-23T20:53:35Z</time>
      </trkpt>
      <trkpt lat="47.0885" lon="-1.27416">
        <ele>20</ele>
        <time>2022-03-23T20:54:26Z</time>
      </trkpt>
      <trkpt lat="47.08854" lon="-1.27471">
        <ele>21</ele>
        <time>2022-03-23T20:55:16Z</time>
      </trkpt>
      <trkpt lat="47.08854" lon="-1.27514">
        <ele>22</ele>
        <time>2022-03-23T20:55:55Z</time>
      </trkpt>
      <trkpt lat="47.08841" lon="-1.27541">
        <ele>23</ele>
        <time>2022-03-23T20:56:25Z</time>
      </trkpt>
      <trkpt lat="47.08822" lon="-1.27569">
        <ele>24</ele>
        <time>2022-03-23T20:57:01Z</time>
      </trkpt>
      <trkpt lat="47.08797" lon="-1.27594">
        <ele>24</ele>
        <time>2022-03-23T20:57:41Z</time>
      </trkpt>
      <trkpt lat="47.08779" lon="-1.27627">
        <ele>22</ele>
        <time>2022-03-23T20:58:20Z</time>
      </trkpt>
      <trkpt lat="47.08769" lon="-1.27648">
        <ele>20</ele>
        <time>2022-03-23T20:58:43Z</time>
      </trkpt>
      <trkpt lat="47.08759" lon="-1.2769">
        <ele>18</ele>
        <time>2022-03-23T20:59:23Z</time>
      </trkpt>
      <trkpt lat="47.08755" lon="-1.27688">
        <ele>18</ele>
        <time>2022-03-23T20:59:29Z</time>
      </trkpt>
      <trkpt lat="47.08748" lon="-1.2769">
        <ele>17</ele>
        <time>2022-03-23T20:59:39Z</time>
      </trkpt>
      <trkpt lat="47.08739" lon="-1.27704">
        <ele>17</ele>
        <time>2022-03-23T20:59:56Z</time>
      </trkpt>
      <trkpt lat="47.08732" lon="-1.27722">
        <ele>17</ele>
        <time>2022-03-23T21:00:15Z</time>
      </trkpt>
      <trkpt lat="47.08731" lon="-1.27735">
        <ele>17</ele>
        <time>2022-03-23T21:00:27Z</time>
      </trkpt>
      <trkpt lat="47.08732" lon="-1.27743">
        <ele>17</ele>
        <time>2022-03-23T21:00:34Z</time>
      </trkpt>
      <trkpt lat="47.08727" lon="-1.27749">
        <ele>17</ele>
        <time>2022-03-23T21:00:43Z</time>
      </trkpt>
      <trkpt lat="47.08717" lon="-1.27775">
        <ele>17</ele>
        <time>2022-03-23T21:01:10Z</time>
      </trkpt>
      <trkpt lat="47.08705" lon="-1.27806">
        <ele>17</ele>
        <time>2022-03-23T21:01:42Z</time>
      </trkpt>
      <trkpt lat="47.08703" lon="-1.27826">
        <ele>16</ele>
        <time>2022-03-23T21:02:01Z</time>
      </trkpt>
      <trkpt lat="47.08706" lon="-1.27839">
        <ele>16</ele>
        <time>2022-03-23T21:02:13Z</time>
      </trkpt>
      <trkpt lat="47.08702" lon="-1.27857">
        <ele>16</ele>
        <time>2022-03-23T21:02:30Z</time>
      </trkpt>
      <trkpt lat="47.08685" lon="-1.27835">
        <ele>16</ele>
        <time>2022-03-23T21:03:01Z</time>
      </trkpt>
      <trkpt lat="47.08672" lon="-1.27815">
        <ele>16</ele>
        <time>2022-03-23T21:03:26Z</time>
      </trkpt>
      <trkpt lat="47.08657" lon="-1.2779">
        <ele>17</ele>
        <time>2022-03-23T21:03:56Z</time>
      </trkpt>
      <trkpt lat="47.08648" lon="-1.27774">
        <ele>17</ele>
        <time>2022-03-23T21:04:15Z</time>
      </trkpt>
      <trkpt lat="47.08645" lon="-1.27765">
        <ele>17</ele>
        <time>2022-03-23T21:04:24Z</time>
      </trkpt>
      <trkpt lat="47.0864" lon="-1.27735">
        <ele>18</ele>
        <time>2022-03-23T21:04:52Z</time>
      </trkpt>
      <trkpt lat="47.08641" lon="-1.27711">
        <ele>20</ele>
        <time>2022-03-23T21:05:14Z</time>
      </trkpt>
      <trkpt lat="47.08642" lon="-1.27703">
        <ele>21</ele>
        <time>2022-03-23T21:05:21Z</time>
      </trkpt>
      <trkpt lat="47.08616" lon="-1.27697">
        <ele>22</ele>
        <time>2022-03-23T21:05:56Z</time>
      </trkpt>
      <trkpt lat="47.08582" lon="-1.27701">
        <ele>23</ele>
        <time>2022-03-23T21:06:42Z</time>
      </trkpt>
      <trkpt lat="47.08572" lon="-1.27701">
        <ele>22</ele>
        <time>2022-03-23T21:06:55Z</time>
      </trkpt>
      <trkpt lat="47.0855" lon="-1.27694">
        <ele>23</ele>
        <time>2022-03-23T21:07:25Z</time>
      </trkpt>
      <trkpt lat="47.08465" lon="-1.27656">
        <ele>22</ele>
        <time>2022-03-23T21:09:24Z</time>
      </trkpt>
      <trkpt lat="47.08454" lon="-1.27644">
        <ele>22</ele>
        <time>2022-03-23T21:09:42Z</time>
      </trkpt>
      <trkpt lat="47.08442" lon="-1.27622">
        <ele>22</ele>
        <time>2022-03-23T21:10:08Z</time>
      </trkpt>
      <trkpt lat="47.08411" lon="-1.27586">
        <ele>20</ele>
        <time>2022-03-23T21:11:00Z</time>
      </trkpt>
      <trkpt lat="47.08393" lon="-1.27573">
        <ele>20</ele>
        <time>2022-03-23T21:11:27Z</time>
      </trkpt>
      <trkpt lat="47.0838" lon="-1.27561">
        <ele>20</ele>
        <time>2022-03-23T21:11:48Z</time>
      </trkpt>
      <trkpt lat="47.08354" lon="-1.27543">
        <ele>19</ele>
        <time>2022-03-23T21:12:26Z</time>
      </trkpt>
      <trkpt lat="47.08351" lon="-1.27536">
        <ele>18</ele>
        <time>2022-03-23T21:12:34Z</time>
      </trkpt>
      <trkpt lat="47.08345" lon="-1.27515">
        <ele>18</ele>
        <time>2022-03-23T21:12:54Z</time>
      </trkpt>
      <trkpt lat="47.08348" lon="-1.27492">
        <ele>19</ele>
        <time>2022-03-23T21:13:16Z</time>
      </trkpt>
      <trkpt lat="47.08347" lon="-1.2748">
        <ele>19</ele>
        <time>2022-03-23T21:13:27Z</time>
      </trkpt>
      <trkpt lat="47.08344" lon="-1.27463">
        <ele>18</ele>
        <time>2022-03-23T21:13:43Z</time>
      </trkpt>
      <trkpt lat="47.08343" lon="-1.2744">
        <ele>18</ele>
        <time>2022-03-23T21:14:03Z</time>
      </trkpt>
      <trkpt lat="47.08345" lon="-1.27424">
        <ele>18</ele>
        <time>2022-03-23T21:14:18Z</time>
      </trkpt>
      <trkpt lat="47.08361" lon="-1.27377">
        <ele>20</ele>
        <time>2022-03-23T21:15:06Z</time>
      </trkpt>
      <trkpt lat="47.08374" lon="-1.2732">
        <ele>22</ele>
        <time>2022-03-23T21:16:01Z</time>
      </trkpt>
      <trkpt lat="47.08375" lon="-1.27307">
        <ele>22</ele>
        <time>2022-03-23T21:16:13Z</time>
      </trkpt>
      <trkpt lat="47.08372" lon="-1.27268">
        <ele>21</ele>
        <time>2022-03-23T21:16:48Z</time>
      </trkpt>
      <trkpt lat="47.08373" lon="-1.27258">
        <ele>21</ele>
        <time>2022-03-23T21:16:57Z</time>
      </trkpt>
      <trkpt lat="47.0839" lon="-1.27237">
        <ele>23</ele>
        <time>2022-03-23T21:17:27Z</time>
      </trkpt>
      <trkpt lat="47.08394" lon="-1.27226">
        <ele>22</ele>
        <time>2022-03-23T21:17:38Z</time>
      </trkpt>
      <trkpt lat="47.08403" lon="-1.27209">
        <ele>22</ele>
        <time>2022-03-23T21:17:58Z</time>
      </trkpt>
      <trkpt lat="47.08407" lon="-1.27198">
        <ele>21</ele>
        <time>2022-03-23T21:18:09Z</time>
      </trkpt>
      <trkpt lat="47.08408" lon="-1.27186">
        <ele>20</ele>
        <time>2022-03-23T21:18:20Z</time>
      </trkpt>
      <trkpt lat="47.08415" lon="-1.27177">
        <ele>20</ele>
        <time>2022-03-23T21:18:33Z</time>
      </trkpt>
      <trkpt lat="47.08462" lon="-1.27131">
        <ele>21</ele>
        <time>2022-03-23T21:19:48Z</time>
      </trkpt>
      <trkpt lat="47.08469" lon="-1.2713">
        <ele>21</ele>
        <time>2022-03-23T21:19:57Z</time>
      </trkpt>
      <trkpt lat="47.08474" lon="-1.27126">
        <ele>21</ele>
        <time>2022-03-23T21:20:05Z</time>
      </trkpt>
      <trkpt lat="47.08482" lon="-1.27108">
        <ele>20</ele>
        <time>2022-03-23T21:20:25Z</time>
      </trkpt>
      <trkpt lat="47.08486" lon="-1.27105">
        <ele>20</ele>
        <time>2022-03-23T21:20:31Z</time>
      </trkpt>
      <trkpt lat="47.08504" lon="-1.27095">
        <ele>20</ele>
        <time>2022-03-23T21:20:56Z</time>
      </trkpt>
      <trkpt lat="47.08513" lon="-1.27102">
        <ele>22</ele>
        <time>2022-03-23T21:21:10Z</time>
      </trkpt>
      <trkpt lat="47.08518" lon="-1.27113">
        <ele>23</ele>
        <time>2022-03-23T21:21:22Z</time>
      </trkpt>
      <trkpt lat="47.08523" lon="-1.27116">
        <ele>24</ele>
        <time>2022-03-23T21:21:29Z</time>
      </trkpt>
      <trkpt lat="47.0853" lon="-1.27128">
        <ele>26</ele>
        <time>2022-03-23T21:21:43Z</time>
      </trkpt>
      <trkpt lat="47.08527" lon="-1.27134">
        <ele>26</ele>
        <time>2022-03-23T21:21:50Z</time>
      </trkpt>
      <trkpt lat="47.0855" lon="-1.2716">
        <ele>31</ele>
        <time>2022-03-23T21:22:29Z</time>
      </trkpt>
      <trkpt lat="47.08556" lon="-1.27161">
        <ele>31</ele>
        <time>2022-03-23T21:22:37Z</time>
      </trkpt>
      <trkpt lat="47.08561" lon="-1.27165">
        <ele>32</ele>
        <time>2022-03-23T21:22:45Z</time>
      </trkpt>
      <trkpt lat="47.08582" lon="-1.27191">
        <ele>34</ele>
        <time>2022-03-23T21:23:21Z</time>
      </trkpt>
      <trkpt lat="47.08582" lon="-1.27193">
        <ele>34</ele>
        <time>2022-03-23T21:23:23Z</time>
      </trkpt>
      <trkpt lat="47.08595" lon="-1.27153">
        <ele>33</ele>
        <time>2022-03-23T21:24:03Z</time>
      </trkpt>
    </trkseg>
  </trk>
</gpx>